Terminal Aerodrome Forecast
Issued by NWS

Home | Current Version | Previous Version | Text Only | Print | Product List | Glossary On
Versions: 1 2 3 4 5 6 7 8 9 10 11 12 13 14 15 16 17 18
000
FTUS44 KBMX 210500
TAFEET
TAF
KEET 210539Z 2106/2206 00000KT P6SM OVC035
     FM211500 08004KT P6SM OVC030
     FM220000 12005KT P6SM OVC015=

USA.gov is the U.S. government's official web portal to all federal, state and local government web resources and services.